createdAt,value
2022-10-07T00:01:31.672Z,3.83
2022-10-07T00:04:34.425Z,3.87
2022-10-07T00:07:38.916Z,3.50
2022-10-07T00:10:43.787Z,3.75
2022-10-07T00:13:48.111Z,3.53
2022-10-07T00:16:51.263Z,3.65
2022-10-07T00:19:54.222Z,3.70
2022-10-07T00:22:58.523Z,3.53
2022-10-07T00:26:02.681Z,3.65
2022-10-07T00:29:07.045Z,3.40
2022-10-07T00:32:09.796Z,3.50
2022-10-07T00:35:12.587Z,3.23
2022-10-07T00:38:16.686Z,3.38
2022-10-07T00:41:21.642Z,3.85
2022-10-07T00:44:42.606Z,3.70
2022-10-07T00:47:47.688Z,3.45
2022-10-07T00:50:53.094Z,3.10
2022-10-07T00:53:57.805Z,3.17
2022-10-07T00:57:00.660Z,3.72
2022-10-07T01:00:03.947Z,3.40
2022-10-07T01:03:06.747Z,3.53
2022-10-07T01:06:10.347Z,3.37
2022-10-07T01:09:14.870Z,3.20
2022-10-07T01:12:24.654Z,3.50
2022-10-07T01:15:37.340Z,3.30
2022-10-07T01:18:47.715Z,3.60
2022-10-07T01:22:03.981Z,3.30
2022-10-07T01:25:24.073Z,3.63
2022-10-07T01:28:33.241Z,3.17
2022-10-07T01:31:39.280Z,3.03
2022-10-07T01:34:44.826Z,3.45
2022-10-07T01:37:50.625Z,2.90
2022-10-07T01:40:58.222Z,3.30
2022-10-07T01:44:02.675Z,3.42
2022-10-07T01:47:05.982Z,3.05
2022-10-07T01:50:13.534Z,3.33
2022-10-07T01:53:44.415Z,3.33
2022-10-07T01:57:01.035Z,3.20
2022-10-07T02:00:11.145Z,3.50
2022-10-07T02:03:31.663Z,3.03
2022-10-07T02:06:44.350Z,3.08
2022-10-07T02:09:52.895Z,3.10
2022-10-07T02:13:06.176Z,3.00
2022-10-07T02:16:17.647Z,3.42
2022-10-07T02:19:23.982Z,3.10
2022-10-07T02:22:29.887Z,3.30
2022-10-07T02:25:37.472Z,2.80
2022-10-07T02:28:43.593Z,3.00
2022-10-07T02:31:49.631Z,3.25
2022-10-07T02:34:55.935Z,2.90
2022-10-07T02:38:02.600Z,2.80
2022-10-07T02:41:10.314Z,3.00
2022-10-07T02:44:25.901Z,2.92
2022-10-07T02:47:35.040Z,2.90
2022-10-07T02:50:42.425Z,3.20
2022-10-07T02:53:49.329Z,3.00
2022-10-07T02:56:54.494Z,2.77
2022-10-07T03:00:01.095Z,2.90
2022-10-07T03:03:05.929Z,3.13
2022-10-07T03:06:09.716Z,2.80
2022-10-07T03:09:12.805Z,3.13
2022-10-07T03:12:15.496Z,3.00
2022-10-07T03:15:18.360Z,3.25
2022-10-07T03:18:28.498Z,3.03
2022-10-07T03:21:34.079Z,3.08
2022-10-07T03:24:36.735Z,2.72
2022-10-07T03:27:40.238Z,2.83
2022-10-07T03:30:42.816Z,2.63
2022-10-07T03:33:46.762Z,2.78
2022-10-07T03:36:49.324Z,3.30
2022-10-07T03:39:52.720Z,2.83
2022-10-07T03:42:55.388Z,3.00
2022-10-07T03:45:58.299Z,3.22
2022-10-07T03:49:02.549Z,3.17
2022-10-07T03:52:06.551Z,3.03
2022-10-07T03:55:10.116Z,3.00
2022-10-07T03:58:13.008Z,3.38
2022-10-07T04:01:16.359Z,3.40
2022-10-07T04:04:20.717Z,3.40
2022-10-07T04:07:23.295Z,3.10
2022-10-07T04:10:25.946Z,3.20
2022-10-07T04:13:28.954Z,2.85
2022-10-07T04:16:37.810Z,3.10
2022-10-07T04:19:42.205Z,2.78
2022-10-07T04:22:44.809Z,2.67
2022-10-07T04:25:48.336Z,2.70
2022-10-07T04:28:51.498Z,3.38
2022-10-07T04:31:54.845Z,2.90
2022-10-07T04:34:58.892Z,3.50
2022-10-07T04:38:01.462Z,2.90
2022-10-07T04:41:06.901Z,3.10
2022-10-07T04:44:09.460Z,3.35
2022-10-07T04:47:12.242Z,3.15
2022-10-07T04:50:16.672Z,3.38
2022-10-07T04:53:20.471Z,2.93
2022-10-07T04:56:23.421Z,2.88
2022-10-07T04:59:29.729Z,3.28
2022-10-07T05:02:32.890Z,3.17
2022-10-07T05:05:39.297Z,2.97
2022-10-07T05:08:44.077Z,3.00
2022-10-07T05:11:46.747Z,2.90
2022-10-07T05:14:49.305Z,2.83
2022-10-07T05:17:55.934Z,2.65
2022-10-07T05:20:59.887Z,2.95
2022-10-07T05:24:02.439Z,2.80
2022-10-07T05:27:05.239Z,3.05
2022-10-07T05:30:08.773Z,3.50
2022-10-07T05:33:11.454Z,3.10
2022-10-07T05:36:15.485Z,3.40
2022-10-07T05:39:18.035Z,3.37
2022-10-07T05:42:21.093Z,2.90
2022-10-07T05:45:23.656Z,3.30
2022-10-07T05:48:26.323Z,3.50
2022-10-07T05:51:30.364Z,3.40
2022-10-07T05:54:33.223Z,2.80
2022-10-07T05:57:38.370Z,3.30
2022-10-07T06:00:43.404Z,2.95
2022-10-07T06:03:51.056Z,3.13
2022-10-07T06:06:55.262Z,3.45
2022-10-07T06:10:15.556Z,3.20
2022-10-07T06:13:18.343Z,3.40
2022-10-07T06:16:21.698Z,3.38
2022-10-07T06:19:24.555Z,3.40
2022-10-07T06:22:28.859Z,3.03
2022-10-07T06:25:31.406Z,3.28
2022-10-07T06:28:35.057Z,3.80
2022-10-07T06:31:38.067Z,3.47
2022-10-07T06:34:40.824Z,3.50
2022-10-07T06:37:45.041Z,3.13
2022-10-07T06:40:58.873Z,3.50
2022-10-07T06:44:01.712Z,3.80
2022-10-07T06:47:07.877Z,3.45
2022-10-07T06:50:14.062Z,3.80
2022-10-07T06:53:18.154Z,3.33
2022-10-07T06:56:21.110Z,3.50
2022-10-07T06:59:23.820Z,3.33
2022-10-07T07:02:26.592Z,3.50
2022-10-07T07:05:33.545Z,3.20
2022-10-07T07:08:38.780Z,3.00
2022-10-07T07:11:43.458Z,3.08
2022-10-07T07:14:46.053Z,3.55
2022-10-07T07:17:51.135Z,3.47
2022-10-07T07:20:53.932Z,3.50
2022-10-07T07:23:58.882Z,3.23
2022-10-07T07:27:01.829Z,3.25
2022-10-07T07:30:05.403Z,3.65
2022-10-07T07:33:08.359Z,3.42
2022-10-07T07:36:16.440Z,3.67
2022-10-07T07:39:21.185Z,3.87
2022-10-07T07:42:24.008Z,3.50
2022-10-07T07:45:26.605Z,3.05
2022-10-07T07:48:30.532Z,3.08
2022-10-07T07:51:34.329Z,3.00
2022-10-07T07:54:39.672Z,2.80
2022-10-07T07:57:42.779Z,3.00
2022-10-07T08:00:46.135Z,3.38
2022-10-07T08:03:50.048Z,2.70
2022-10-07T08:06:52.881Z,2.95
2022-10-07T08:09:56.894Z,2.77
2022-10-07T08:12:59.426Z,2.85
2022-10-07T08:16:04.160Z,2.38
2022-10-07T08:19:07.142Z,2.90
2022-10-07T08:22:09.695Z,2.50
2022-10-07T08:25:15.084Z,3.10
2022-10-07T08:28:18.571Z,2.63
2022-10-07T08:31:21.636Z,2.67
2022-10-07T08:34:24.535Z,2.58
2022-10-07T08:37:27.149Z,2.00
2022-10-07T08:40:31.352Z,2.10
2022-10-07T08:43:34.754Z,2.65
2022-10-07T08:46:39.225Z,2.88
2022-10-07T08:49:54.545Z,2.70
2022-10-07T08:53:00.248Z,2.83
2022-10-07T08:56:10.677Z,2.58
2022-10-07T08:59:20.405Z,2.50
2022-10-07T09:02:32.295Z,2.45
2022-10-07T09:05:40.411Z,2.40
2022-10-07T09:08:45.654Z,2.10
2022-10-07T09:11:52.035Z,2.00
2022-10-07T09:14:57.885Z,1.90
2022-10-07T09:18:05.596Z,2.50
2022-10-07T09:21:13.718Z,2.35
2022-10-07T09:24:24.752Z,2.17
2022-10-07T09:27:38.181Z,2.25
2022-10-07T09:30:42.240Z,2.27
2022-10-07T09:33:47.021Z,1.98
2022-10-07T09:37:12.986Z,2.33
2022-10-07T09:40:23.814Z,1.88
2022-10-07T09:43:28.435Z,2.00
2022-10-07T09:46:53.330Z,2.07
2022-10-07T09:49:59.789Z,2.20
2022-10-07T09:53:02.888Z,2.35
2022-10-07T09:56:05.560Z,1.73
2022-10-07T09:59:21.876Z,1.75
2022-10-07T10:02:27.597Z,1.70
2022-10-07T10:05:32.826Z,1.60
2022-10-07T10:08:37.928Z,1.70
2022-10-07T10:11:40.671Z,1.33
2022-10-07T10:14:52.505Z,1.55
2022-10-07T10:17:58.649Z,1.10
2022-10-07T10:21:32.495Z,1.23
2022-10-07T10:24:53.776Z,1.50
2022-10-07T10:28:09.272Z,1.08
2022-10-07T10:31:25.481Z,1.40
2022-10-07T10:34:38.309Z,1.20
2022-10-07T10:37:58.376Z,1.15
2022-10-07T10:41:12.595Z,1.27
2022-10-07T10:44:42.947Z,1.08
2022-10-07T10:48:03.270Z,1.30
2022-10-07T10:51:18.011Z,1.40
2022-10-07T10:54:28.902Z,1.30
2022-10-07T10:57:44.242Z,1.27
2022-10-07T11:00:59.694Z,1.10
2022-10-07T11:04:29.726Z,1.33
2022-10-07T11:07:36.728Z,1.00
2022-10-07T11:10:43.219Z,1.27
2022-10-07T11:13:51.855Z,1.05
2022-10-07T11:16:59.668Z,1.00
2022-10-07T11:20:15.475Z,1.10
2022-10-07T11:23:24.381Z,0.97
2022-10-07T11:26:34.718Z,1.00
2022-10-07T11:29:43.541Z,0.98
2022-10-07T11:32:50.660Z,1.20
2022-10-07T11:35:59.491Z,1.20
2022-10-07T11:39:02.428Z,1.20
2022-10-07T11:42:12.597Z,0.88
2022-10-07T11:45:21.378Z,1.20
2022-10-07T11:48:29.728Z,1.17
2022-10-07T11:51:37.860Z,1.10
2022-10-07T11:54:44.187Z,1.20
2022-10-07T11:57:54.083Z,0.90
2022-10-07T12:01:30.572Z,1.23
2022-10-07T12:04:38.902Z,0.90
2022-10-07T12:07:59.318Z,1.17
2022-10-07T12:11:44.038Z,0.90
2022-10-07T12:15:00.589Z,1.10
2022-10-07T12:18:28.799Z,1.08
2022-10-07T12:22:03.164Z,0.90
2022-10-07T12:25:32.373Z,1.25
2022-10-07T12:28:46.013Z,1.23
2022-10-07T12:31:49.502Z,1.33
2022-10-07T12:34:52.287Z,1.20
2022-10-07T12:38:04.253Z,1.20
2022-10-07T12:41:28.173Z,1.13
2022-10-07T12:44:36.928Z,1.20
2022-10-07T12:47:40.290Z,1.23
2022-10-07T12:50:44.658Z,1.33
2022-10-07T12:53:54.312Z,1.17
2022-10-07T12:56:59.621Z,1.10
2022-10-07T13:00:07.974Z,1.20
2022-10-07T13:03:41.063Z,1.20
2022-10-07T13:07:33.376Z,1.30
2022-10-07T13:10:57.620Z,0.98
2022-10-07T13:14:04.859Z,1.20
2022-10-07T13:17:23.739Z,1.10
2022-10-07T13:20:39.431Z,1.25
2022-10-07T13:23:51.529Z,1.03
2022-10-07T13:26:54.259Z,1.17
2022-10-07T13:29:59.694Z,1.13
2022-10-07T13:33:15.726Z,1.20
2022-10-07T13:36:22.107Z,1.15
2022-10-07T13:39:25.751Z,0.83
2022-10-07T13:42:30.033Z,1.30
2022-10-07T13:45:43.096Z,1.50
2022-10-07T13:48:48.323Z,1.13
2022-10-07T13:51:56.100Z,1.10
2022-10-07T13:54:58.917Z,1.20
2022-10-07T13:58:04.642Z,1.65
2022-10-07T14:01:09.207Z,1.13
2022-10-07T14:04:25.275Z,0.90
2022-10-07T14:07:29.489Z,1.10
2022-10-07T14:10:32.695Z,1.47
2022-10-07T14:13:37.843Z,1.15
2022-10-07T14:16:41.840Z,1.35
2022-10-07T14:19:44.751Z,0.90
2022-10-07T14:22:51.029Z,1.00
2022-10-07T14:25:56.225Z,1.07
2022-10-07T14:28:58.800Z,0.70
2022-10-07T14:32:30.514Z,1.30
2022-10-07T14:35:34.125Z,1.00
2022-10-07T14:38:36.783Z,0.80
2022-10-07T14:41:39.539Z,0.90
2022-10-07T14:44:43.974Z,0.95
2022-10-07T14:47:48.519Z,1.00
2022-10-07T14:50:51.835Z,1.00
2022-10-07T14:53:56.922Z,1.00
2022-10-07T14:56:59.764Z,1.03
2022-10-07T15:00:02.739Z,0.98
2022-10-07T15:03:07.032Z,0.90
2022-10-07T15:06:09.717Z,1.10
2022-10-07T15:09:13.656Z,1.25
2022-10-07T15:12:17.457Z,1.00
2022-10-07T15:15:20.342Z,1.20
2022-10-07T15:18:24.350Z,1.20
2022-10-07T15:21:29.453Z,0.95
2022-10-07T15:24:33.058Z,1.10
2022-10-07T15:27:35.648Z,1.30
2022-10-07T15:30:39.542Z,1.40
2022-10-07T15:33:44.315Z,1.38
2022-10-07T15:36:48.081Z,1.20
2022-10-07T15:39:51.284Z,1.30
2022-10-07T15:42:53.890Z,1.00
2022-10-07T15:45:58.804Z,1.20
2022-10-07T15:49:03.640Z,1.13
2022-10-07T15:52:06.554Z,1.20
2022-10-07T15:55:09.710Z,1.30
2022-10-07T15:58:12.422Z,1.23
2022-10-07T16:01:15.706Z,1.10
2022-10-07T16:04:20.337Z,1.38
2022-10-07T16:07:24.095Z,1.20
2022-10-07T16:10:26.971Z,1.50
2022-10-07T16:13:30.427Z,1.30
2022-10-07T16:16:33.236Z,1.70
2022-10-07T16:19:37.204Z,2.83
2022-10-07T16:22:39.772Z,6.00
2022-10-07T16:25:43.377Z,12.88
2022-10-07T16:29:04.912Z,10.00
2022-10-07T16:32:10.559Z,10.70
2022-10-07T16:35:14.756Z,6.95
2022-10-07T16:38:18.065Z,3.83
2022-10-07T16:41:22.020Z,2.40
2022-10-07T16:44:24.935Z,2.22
2022-10-07T16:47:32.887Z,1.60
2022-10-07T16:50:36.843Z,1.75
2022-10-07T16:53:41.122Z,1.40
2022-10-07T16:56:48.056Z,1.37
2022-10-07T16:59:53.405Z,1.48
2022-10-07T17:02:55.949Z,1.70
2022-10-07T17:06:00.165Z,1.52
2022-10-07T17:09:04.329Z,1.75
2022-10-07T17:12:07.010Z,1.50
2022-10-07T17:15:10.128Z,1.50
2022-10-07T17:18:12.764Z,2.15
2022-10-07T17:21:16.670Z,1.60
2022-10-07T17:24:21.767Z,4.30
2022-10-07T17:27:24.381Z,9.27
2022-10-07T17:30:27.057Z,8.45
2022-10-07T17:33:30.242Z,7.88
2022-10-07T17:36:34.582Z,5.40
2022-10-07T17:39:37.419Z,3.38
2022-10-07T17:42:40.113Z,2.00
2022-10-07T17:45:42.910Z,2.15
2022-10-07T17:48:46.578Z,2.15
2022-10-07T17:51:50.637Z,2.20
2022-10-07T17:54:56.643Z,2.13
2022-10-07T17:57:59.247Z,1.90
2022-10-07T18:01:06.884Z,2.40
2022-10-07T18:04:12.796Z,4.05
2022-10-07T18:07:17.533Z,4.25
2022-10-07T18:10:20.186Z,4.93
2022-10-07T18:13:40.755Z,4.10
2022-10-07T18:16:43.545Z,3.40
2022-10-07T18:19:46.609Z,3.38
2022-10-07T18:22:54.679Z,2.85
2022-10-07T18:26:01.968Z,2.40
2022-10-07T18:29:05.394Z,2.20
2022-10-07T18:32:09.172Z,2.30
2022-10-07T18:35:12.019Z,2.35
2022-10-07T18:38:15.986Z,2.50
2022-10-07T18:41:19.772Z,2.15
2022-10-07T18:44:22.718Z,2.30
2022-10-07T18:47:25.365Z,2.40
2022-10-07T18:50:32.698Z,2.53
2022-10-07T18:53:39.498Z,2.30
2022-10-07T18:56:42.125Z,2.63
2022-10-07T18:59:44.726Z,2.90
2022-10-07T19:02:51.133Z,2.65
2022-10-07T19:05:54.120Z,2.63
2022-10-07T19:09:00.107Z,2.20
2022-10-07T19:12:02.901Z,2.70
2022-10-07T19:15:05.193Z,2.30
2022-10-07T19:18:07.757Z,2.05
2022-10-07T19:21:11.347Z,2.20
2022-10-07T19:24:16.425Z,2.13
2022-10-07T19:27:19.106Z,2.00
2022-10-07T19:30:21.622Z,1.83
2022-10-07T19:33:25.457Z,1.67
2022-10-07T19:36:28.224Z,2.25
2022-10-07T19:39:32.107Z,2.10
2022-10-07T19:42:35.002Z,2.25
2022-10-07T19:45:38.629Z,2.47
2022-10-07T19:48:42.336Z,2.30
2022-10-07T19:51:45.487Z,2.40
2022-10-07T19:54:50.427Z,2.00
2022-10-07T19:57:54.530Z,2.05
2022-10-07T20:01:04.136Z,2.03
2022-10-07T20:04:08.726Z,2.08
2022-10-07T20:07:11.565Z,2.08
2022-10-07T20:10:15.532Z,2.30
2022-10-07T20:13:18.118Z,3.93
2022-10-07T20:16:22.554Z,4.20
2022-10-07T20:19:25.194Z,3.40
2022-10-07T20:22:27.748Z,2.65
2022-10-07T20:25:31.733Z,2.35
2022-10-07T20:28:35.674Z,2.20
2022-10-07T20:31:40.153Z,2.10
2022-10-07T20:34:42.910Z,2.10
2022-10-07T20:37:45.477Z,2.42
2022-10-07T20:41:11.720Z,2.08
2022-10-07T20:44:16.003Z,2.40
2022-10-07T20:47:19.725Z,2.80
2022-10-07T20:50:22.484Z,2.70
2022-10-07T20:53:25.035Z,2.78
2022-10-07T20:56:28.950Z,2.35
2022-10-07T20:59:32.417Z,2.47
2022-10-07T21:02:35.073Z,2.50
2022-10-07T21:05:38.555Z,2.30
2022-10-07T21:08:41.564Z,2.63
2022-10-07T21:11:46.017Z,2.80
2022-10-07T21:14:49.871Z,2.60
2022-10-07T21:17:52.385Z,2.60
2022-10-07T21:20:56.961Z,2.38
2022-10-07T21:23:59.792Z,2.75
2022-10-07T21:27:05.485Z,2.40
2022-10-07T21:30:10.378Z,2.73
2022-10-07T21:33:13.534Z,2.50
2022-10-07T21:36:18.666Z,2.65
2022-10-07T21:39:21.464Z,2.80
2022-10-07T21:42:25.620Z,2.78
2022-10-07T21:45:30.981Z,2.90
2022-10-07T21:48:33.779Z,2.50
2022-10-07T21:51:36.767Z,2.70
2022-10-07T21:54:41.077Z,2.60
2022-10-07T21:57:45.081Z,3.40
2022-10-07T22:00:47.867Z,2.83
2022-10-07T22:03:54.871Z,2.65
2022-10-07T22:07:15.531Z,2.70
2022-10-07T22:10:18.389Z,2.90
2022-10-07T22:13:22.343Z,3.22
2022-10-07T22:16:25.297Z,2.55
2022-10-07T22:19:27.932Z,2.70
2022-10-07T22:22:31.643Z,2.70
2022-10-07T22:25:35.213Z,2.80
2022-10-07T22:28:39.795Z,2.72
2022-10-07T22:31:43.001Z,2.70
2022-10-07T22:35:03.120Z,3.35
2022-10-07T22:38:05.906Z,2.80
2022-10-07T22:41:10.753Z,2.65
2022-10-07T22:44:15.181Z,3.08
2022-10-07T22:47:17.760Z,2.90
2022-10-07T22:50:20.357Z,3.00
2022-10-07T22:53:23.037Z,2.93
2022-10-07T22:56:27.592Z,2.70
2022-10-07T22:59:31.623Z,3.25
2022-10-07T23:02:34.464Z,3.30
2022-10-07T23:05:38.036Z,3.22
2022-10-07T23:08:41.169Z,3.13
2022-10-07T23:11:43.755Z,2.90
2022-10-07T23:14:47.923Z,3.08
2022-10-07T23:17:50.480Z,3.00
2022-10-07T23:20:59.694Z,3.13
2022-10-07T23:24:07.264Z,2.97
2022-10-07T23:27:11.259Z,3.05
2022-10-07T23:30:15.360Z,2.88
2022-10-07T23:33:21.239Z,2.85
2022-10-07T23:36:24.969Z,2.70
2022-10-07T23:39:27.574Z,2.87
2022-10-07T23:42:30.638Z,2.95
2022-10-07T23:45:34.551Z,3.10
2022-10-07T23:48:37.402Z,3.10
2022-10-07T23:51:40.198Z,3.00
2022-10-07T23:54:42.883Z,3.07
2022-10-07T23:57:45.460Z,3.20
